sensor_id;sensor_type;location;lat;lon;timestamp;pressure;altitude;pressure_sealevel;temperature;humidity
10366;BME280;5229;41.820;23.490;2022-07-29T00:01:24;90345.88;;;19.17;66.10
10366;BME280;5229;41.820;23.490;2022-07-29T00:03:50;90355.56;;;19.13;66.18
10366;BME280;5229;41.820;23.490;2022-07-29T00:06:17;90348.28;;;19.06;66.37
10366;BME280;5229;41.820;23.490;2022-07-29T00:08:44;90347.19;;;19.07;66.56
10366;BME280;5229;41.820;23.490;2022-07-29T00:11:11;90345.66;;;19.06;66.33
10366;BME280;5229;41.820;23.490;2022-07-29T00:13:38;90343.72;;;19.03;66.60
10366;BME280;5229;41.820;23.490;2022-07-29T00:16:06;90331.63;;;18.99;66.63
10366;BME280;5229;41.820;23.490;2022-07-29T00:18:33;90333.00;;;18.93;66.80
10366;BME280;5229;41.820;23.490;2022-07-29T00:20:59;90327.72;;;18.93;66.88
10366;BME280;5229;41.820;23.490;2022-07-29T00:23:26;90322.47;;;18.93;66.75
10366;BME280;5229;41.820;23.490;2022-07-29T00:25:53;90321.78;;;18.96;66.48
10366;BME280;5229;41.820;23.490;2022-07-29T00:28:20;90323.72;;;18.99;66.73
10366;BME280;5229;41.820;23.490;2022-07-29T00:30:47;90324.13;;;19.01;66.40
10366;BME280;5229;41.820;23.490;2022-07-29T00:33:15;90332.88;;;19.05;66.39
10366;BME280;5229;41.820;23.490;2022-07-29T00:35:42;90347.25;;;19.11;66.16
10366;BME280;5229;41.820;23.490;2022-07-29T00:38:12;90335.63;;;19.12;66.15
10366;BME280;5229;41.820;23.490;2022-07-29T00:40:40;90336.38;;;19.12;66.46
10366;BME280;5229;41.820;23.490;2022-07-29T00:43:07;90327.69;;;19.08;66.37
10366;BME280;5229;41.820;23.490;2022-07-29T00:45:34;90324.22;;;19.04;66.29
10366;BME280;5229;41.820;23.490;2022-07-29T00:48:01;90333.22;;;19.03;66.57
10366;BME280;5229;41.820;23.490;2022-07-29T00:50:31;90336.59;;;19.04;66.80
10366;BME280;5229;41.820;23.490;2022-07-29T00:52:58;90336.19;;;19.02;66.60
10366;BME280;5229;41.820;23.490;2022-07-29T00:55:26;90330.78;;;18.95;66.69
10366;BME280;5229;41.820;23.490;2022-07-29T00:57:53;90331.13;;;18.93;66.58
10366;BME280;5229;41.820;23.490;2022-07-29T01:00:24;90330.34;;;18.93;66.76
10366;BME280;5229;41.820;23.490;2022-07-29T01:02:52;90329.53;;;18.89;66.30
10366;BME280;5229;41.820;23.490;2022-07-29T01:05:20;90328.69;;;18.85;66.80
10366;BME280;5229;41.820;23.490;2022-07-29T01:07:52;90324.81;;;18.79;67.15
10366;BME280;5229;41.820;23.490;2022-07-29T01:10:19;90319.41;;;18.72;67.18
10366;BME280;5229;41.820;23.490;2022-07-29T01:12:49;90306.81;;;18.62;67.50
10366;BME280;5229;41.820;23.490;2022-07-29T01:15:17;90306.25;;;18.53;67.63
10366;BME280;5229;41.820;23.490;2022-07-29T01:17:46;90307.72;;;18.50;67.76
10366;BME280;5229;41.820;23.490;2022-07-29T01:20:22;90308.13;;;18.52;67.55
10366;BME280;5229;41.820;23.490;2022-07-29T01:23:16;90304.75;;;18.52;67.65
10366;BME280;5229;41.820;23.490;2022-07-29T01:26:09;90290.56;;;18.56;67.28
10366;BME280;5229;41.820;23.490;2022-07-29T01:28:55;90290.66;;;18.60;67.09
10366;BME280;5229;41.820;23.490;2022-07-29T01:31:33;90288.50;;;18.65;66.78
10366;BME280;5229;41.820;23.490;2022-07-29T01:34:03;90283.25;;;18.65;66.74
10366;BME280;5229;41.820;23.490;2022-07-29T01:36:35;90289.69;;;18.68;66.54
10366;BME280;5229;41.820;23.490;2022-07-29T01:39:06;90291.63;;;18.71;66.33
10366;BME280;5229;41.820;23.490;2022-07-29T01:41:38;90289.81;;;18.75;66.75
10366;BME280;5229;41.820;23.490;2022-07-29T01:44:20;90284.56;;;18.75;66.58
10366;BME280;5229;41.820;23.490;2022-07-29T01:46:53;90298.97;;;18.81;66.61
10366;BME280;5229;41.820;23.490;2022-07-29T01:49:27;90302.41;;;18.85;66.44
10366;BME280;5229;41.820;23.490;2022-07-29T01:51:57;90294.94;;;18.87;66.38
10366;BME280;5229;41.820;23.490;2022-07-29T01:54:30;90296.34;;;18.81;66.30
10366;BME280;5229;41.820;23.490;2022-07-29T01:56:58;90304.13;;;18.77;66.63
10366;BME280;5229;41.820;23.490;2022-07-29T01:59:29;90304.47;;;18.76;66.53
10366;BME280;5229;41.820;23.490;2022-07-29T02:01:58;90304.75;;;18.71;66.89
10366;BME280;5229;41.820;23.490;2022-07-29T02:04:27;90300.88;;;18.65;66.83
10366;BME280;5229;41.820;23.490;2022-07-29T02:07:00;90300.38;;;18.59;66.73
10366;BME280;5229;41.820;23.490;2022-07-29T02:09:29;90293.13;;;18.53;67.06
10366;BME280;5229;41.820;23.490;2022-07-29T02:11:59;90290.75;;;18.48;67.37
10366;BME280;5229;41.820;23.490;2022-07-29T02:14:32;90289.91;;;18.44;67.45
10366;BME280;5229;41.820;23.490;2022-07-29T02:17:01;90292.81;;;18.39;67.37
10366;BME280;5229;41.820;23.490;2022-07-29T02:19:29;90280.38;;;18.36;67.33
10366;BME280;5229;41.820;23.490;2022-07-29T02:21:58;90274.34;;;18.35;67.41
10366;BME280;5229;41.820;23.490;2022-07-29T02:24:27;90279.69;;;18.39;67.54
10366;BME280;5229;41.820;23.490;2022-07-29T02:26:56;90289.91;;;18.44;67.50
10366;BME280;5229;41.820;23.490;2022-07-29T02:29:26;90279.00;;;18.42;67.39
10366;BME280;5229;41.820;23.490;2022-07-29T02:31:57;90279.75;;;18.42;67.42
10366;BME280;5229;41.820;23.490;2022-07-29T02:34:25;90291.84;;;18.47;67.54
10366;BME280;5229;41.820;23.490;2022-07-29T02:36:54;90283.72;;;18.52;67.49
10366;BME280;5229;41.820;23.490;2022-07-29T02:39:23;90288.69;;;18.57;67.32
10366;BME280;5229;41.820;23.490;2022-07-29T02:41:52;90276.34;;;18.57;67.24
10366;BME280;5229;41.820;23.490;2022-07-29T02:44:24;90282.69;;;18.56;67.19
10366;BME280;5229;41.820;23.490;2022-07-29T02:46:53;90288.28;;;18.55;67.17
10366;BME280;5229;41.820;23.490;2022-07-29T02:49:32;90285.94;;;18.50;67.09
10366;BME280;5229;41.820;23.490;2022-07-29T02:52:03;90282.47;;;18.46;67.38
10366;BME280;5229;41.820;23.490;2022-07-29T02:54:37;90281.97;;;18.40;67.37
10366;BME280;5229;41.820;23.490;2022-07-29T02:57:14;90273.56;;;18.35;67.98
10366;BME280;5229;41.820;23.490;2022-07-29T02:59:43;90280.38;;;18.36;67.46
10366;BME280;5229;41.820;23.490;2022-07-29T03:02:13;90280.69;;;18.34;67.77
10366;BME280;5229;41.820;23.490;2022-07-29T03:04:42;90284.06;;;18.35;67.75
10366;BME280;5229;41.820;23.490;2022-07-29T03:07:11;90282.53;;;18.34;67.69
10366;BME280;5229;41.820;23.490;2022-07-29T03:09:40;90278.41;;;18.33;67.67
10366;BME280;5229;41.820;23.490;2022-07-29T03:12:08;90275.38;;;18.31;67.81
10366;BME280;5229;41.820;23.490;2022-07-29T03:14:36;90281.69;;;18.30;67.97
10366;BME280;5229;41.820;23.490;2022-07-29T03:17:04;90282.38;;;18.27;68.24
10366;BME280;5229;41.820;23.490;2022-07-29T03:19:32;90289.19;;;18.28;67.81
10366;BME280;5229;41.820;23.490;2022-07-29T03:22:01;90289.84;;;18.25;68.06
10366;BME280;5229;41.820;23.490;2022-07-29T03:24:30;90286.78;;;18.23;68.11
10366;BME280;5229;41.820;23.490;2022-07-29T03:26:57;90297.28;;;18.23;67.95
10366;BME280;5229;41.820;23.490;2022-07-29T03:29:25;90298.84;;;18.24;68.05
10366;BME280;5229;41.820;23.490;2022-07-29T03:31:52;90299.59;;;18.24;68.21
10366;BME280;5229;41.820;23.490;2022-07-29T03:34:19;90301.47;;;18.24;68.34
10366;BME280;5229;41.820;23.490;2022-07-29T03:36:46;90302.63;;;18.26;67.99
10366;BME280;5229;41.820;23.490;2022-07-29T03:39:19;90302.31;;;18.28;67.91
10366;BME280;5229;41.820;23.490;2022-07-29T03:41:48;90301.97;;;18.29;68.34
10366;BME280;5229;41.820;23.490;2022-07-29T03:44:17;90308.72;;;18.30;68.35
10366;BME280;5229;41.820;23.490;2022-07-29T03:46:45;90308.47;;;18.35;68.42
10366;BME280;5229;41.820;23.490;2022-07-29T03:49:14;90307.47;;;18.40;68.28
10366;BME280;5229;41.820;23.490;2022-07-29T03:51:43;90304.59;;;18.45;68.12
10366;BME280;5229;41.820;23.490;2022-07-29T03:54:10;90309.28;;;18.55;67.83
10366;BME280;5229;41.820;23.490;2022-07-29T03:56:41;90308.69;;;18.61;67.85
10366;BME280;5229;41.820;23.490;2022-07-29T03:59:11;90306.97;;;18.69;67.93
10366;BME280;5229;41.820;23.490;2022-07-29T04:01:39;90309.81;;;18.79;67.72
10366;BME280;5229;41.820;23.490;2022-07-29T04:04:07;90316.72;;;18.87;67.33
10366;BME280;5229;41.820;23.490;2022-07-29T04:06:38;90309.81;;;18.98;67.04
10366;BME280;5229;41.820;23.490;2022-07-29T04:09:06;90320.56;;;19.09;66.96
10366;BME280;5229;41.820;23.490;2022-07-29T04:11:33;90314.72;;;19.19;66.80
10366;BME280;5229;41.820;23.490;2022-07-29T04:14:02;90316.81;;;19.29;66.63
10366;BME280;5229;41.820;23.490;2022-07-29T04:16:29;90315.56;;;19.42;66.39
10366;BME280;5229;41.820;23.490;2022-07-29T04:18:55;90311.63;;;19.51;66.16
10366;BME280;5229;41.820;23.490;2022-07-29T04:21:22;90314.72;;;19.57;65.82
10366;BME280;5229;41.820;23.490;2022-07-29T04:23:49;90321.09;;;19.56;65.80
10366;BME280;5229;41.820;23.490;2022-07-29T04:26:16;90324.16;;;19.58;65.81
10366;BME280;5229;41.820;23.490;2022-07-29T04:28:43;90318.28;;;19.68;65.41
10366;BME280;5229;41.820;23.490;2022-07-29T04:31:12;90323.88;;;19.85;65.13
10366;BME280;5229;41.820;23.490;2022-07-29T04:33:39;90316.31;;;20.06;64.85
10366;BME280;5229;41.820;23.490;2022-07-29T04:36:07;90317.84;;;20.30;64.11
10366;BME280;5229;41.820;23.490;2022-07-29T04:38:36;90319.69;;;20.52;63.65
10366;BME280;5229;41.820;23.490;2022-07-29T04:41:03;90325.25;;;20.73;63.51
10366;BME280;5229;41.820;23.490;2022-07-29T04:43:30;90327.75;;;20.92;63.14
10366;BME280;5229;41.820;23.490;2022-07-29T04:45:56;90325.84;;;21.15;63.06
10366;BME280;5229;41.820;23.490;2022-07-29T04:48:25;90326.88;;;21.40;63.33
10366;BME280;5229;41.820;23.490;2022-07-29T04:50:51;90329.75;;;21.61;63.12
10366;BME280;5229;41.820;23.490;2022-07-29T04:53:18;90328.50;;;21.81;63.00
10366;BME280;5229;41.820;23.490;2022-07-29T04:55:45;90330.19;;;22.03;63.05
10366;BME280;5229;41.820;23.490;2022-07-29T04:58:12;90326.25;;;22.23;62.89
10366;BME280;5229;41.820;23.490;2022-07-29T05:00:39;90328.66;;;22.42;62.44
10366;BME280;5229;41.820;23.490;2022-07-29T05:03:05;90333.38;;;22.66;62.62
10366;BME280;5229;41.820;23.490;2022-07-29T05:05:34;90334.66;;;22.90;61.99
10366;BME280;5229;41.820;23.490;2022-07-29T05:08:01;90333.28;;;23.10;61.57
10366;BME280;5229;41.820;23.490;2022-07-29T05:10:28;90339.78;;;23.23;60.83
10366;BME280;5229;41.820;23.490;2022-07-29T05:12:55;90334.94;;;23.36;60.37
10366;BME280;5229;41.820;23.490;2022-07-29T05:15:21;90331.22;;;23.51;60.36
10366;BME280;5229;41.820;23.490;2022-07-29T05:17:48;90335.44;;;23.66;59.75
10366;BME280;5229;41.820;23.490;2022-07-29T05:20:15;90333.59;;;23.84;59.68
10366;BME280;5229;41.820;23.490;2022-07-29T05:22:45;90334.78;;;24.00;58.61
10366;BME280;5229;41.820;23.490;2022-07-29T05:25:11;90334.44;;;24.16;58.39
10366;BME280;5229;41.820;23.490;2022-07-29T05:27:38;90338.25;;;24.29;57.66
10366;BME280;5229;41.820;23.490;2022-07-29T05:30:06;90332.97;;;24.43;57.81
10366;BME280;5229;41.820;23.490;2022-07-29T05:32:33;90345.06;;;24.58;57.99
10366;BME280;5229;41.820;23.490;2022-07-29T05:35:00;90340.56;;;24.69;57.69
10366;BME280;5229;41.820;23.490;2022-07-29T05:37:27;90337.13;;;24.79;57.69
10366;BME280;5229;41.820;23.490;2022-07-29T05:39:55;90328.78;;;24.91;57.52
10366;BME280;5229;41.820;23.490;2022-07-29T05:42:22;90336.34;;;25.10;56.97
10366;BME280;5229;41.820;23.490;2022-07-29T05:44:49;90334.41;;;25.28;56.57
10366;BME280;5229;41.820;23.490;2022-07-29T05:47:16;90339.28;;;25.47;56.69
10366;BME280;5229;41.820;23.490;2022-07-29T05:49:43;90338.47;;;25.61;56.66
10366;BME280;5229;41.820;23.490;2022-07-29T05:52:10;90339.19;;;25.75;55.81
10366;BME280;5229;41.820;23.490;2022-07-29T05:54:38;90348.97;;;25.89;55.50
10366;BME280;5229;41.820;23.490;2022-07-29T05:57:07;90353.13;;;26.00;54.62
10366;BME280;5229;41.820;23.490;2022-07-29T05:59:35;90349.25;;;26.15;54.36
10366;BME280;5229;41.820;23.490;2022-07-29T06:02:02;90359.41;;;26.31;54.39
10366;BME280;5229;41.820;23.490;2022-07-29T06:04:30;90358.59;;;26.44;54.01
10366;BME280;5229;41.820;23.490;2022-07-29T06:06:57;90370.25;;;26.57;53.33
10366;BME280;5229;41.820;23.490;2022-07-29T06:09:24;90362.25;;;26.64;53.41
10366;BME280;5229;41.820;23.490;2022-07-29T06:11:51;90363.72;;;26.72;53.11
10366;BME280;5229;41.820;23.490;2022-07-29T06:14:19;90362.88;;;26.82;52.48
10366;BME280;5229;41.820;23.490;2022-07-29T06:16:46;90362.75;;;26.96;52.68
10366;BME280;5229;41.820;23.490;2022-07-29T06:19:13;90370.19;;;27.19;51.56
10366;BME280;5229;41.820;23.490;2022-07-29T06:21:41;90357.13;;;27.35;50.57
10366;BME280;5229;41.820;23.490;2022-07-29T06:24:09;90362.97;;;27.56;50.36
10366;BME280;5229;41.820;23.490;2022-07-29T06:26:37;90365.06;;;27.75;49.77
10366;BME280;5229;41.820;23.490;2022-07-29T06:29:04;90361.09;;;27.90;49.98
10366;BME280;5229;41.820;23.490;2022-07-29T06:31:33;90363.94;;;28.06;49.19
10366;BME280;5229;41.820;23.490;2022-07-29T06:33:59;90354.63;;;28.22;49.20
10366;BME280;5229;41.820;23.490;2022-07-29T06:36:26;90354.06;;;28.34;48.43
10366;BME280;5229;41.820;23.490;2022-07-29T06:38:53;90358.06;;;28.49;48.54
10366;BME280;5229;41.820;23.490;2022-07-29T06:41:20;90360.53;;;28.63;48.15
10366;BME280;5229;41.820;23.490;2022-07-29T06:43:48;90358.34;;;28.81;48.00
10366;BME280;5229;41.820;23.490;2022-07-29T06:46:18;90350.47;;;28.97;47.51
10366;BME280;5229;41.820;23.490;2022-07-29T06:48:46;90359.78;;;29.12;47.46
10366;BME280;5229;41.820;23.490;2022-07-29T06:51:13;90358.38;;;29.27;46.86
10366;BME280;5229;41.820;23.490;2022-07-29T06:53:41;90358.81;;;29.45;45.20
10366;BME280;5229;41.820;23.490;2022-07-29T06:56:08;90355.47;;;29.64;44.61
10366;BME280;5229;41.820;23.490;2022-07-29T06:58:36;90356.56;;;29.86;44.06
10366;BME280;5229;41.820;23.490;2022-07-29T07:01:04;90356.97;;;30.04;43.76
10366;BME280;5229;41.820;23.490;2022-07-29T07:03:31;90368.50;;;30.20;43.12
10366;BME280;5229;41.820;23.490;2022-07-29T07:06:00;90360.13;;;30.38;43.96
10366;BME280;5229;41.820;23.490;2022-07-29T07:08:27;90354.78;;;30.54;43.64
10366;BME280;5229;41.820;23.490;2022-07-29T07:10:54;90359.50;;;30.66;42.85
10366;BME280;5229;41.820;23.490;2022-07-29T07:13:22;90357.69;;;30.79;42.11
10366;BME280;5229;41.820;23.490;2022-07-29T07:15:49;90353.69;;;30.87;42.12
10366;BME280;5229;41.820;23.490;2022-07-29T07:18:17;90351.16;;;30.96;41.32
10366;BME280;5229;41.820;23.490;2022-07-29T07:20:45;90352.78;;;31.10;41.88
10366;BME280;5229;41.820;23.490;2022-07-29T07:23:13;90352.84;;;31.22;41.04
10366;BME280;5229;41.820;23.490;2022-07-29T07:25:40;90363.56;;;31.38;41.06
10366;BME280;5229;41.820;23.490;2022-07-29T07:28:07;90355.94;;;31.53;39.36
10366;BME280;5229;41.820;23.490;2022-07-29T07:30:34;90349.34;;;31.70;38.72
10366;BME280;5229;41.820;23.490;2022-07-29T07:33:01;90356.94;;;31.87;37.36
10366;BME280;5229;41.820;23.490;2022-07-29T07:35:28;90352.69;;;32.02;37.41
10366;BME280;5229;41.820;23.490;2022-07-29T07:37:55;90355.31;;;32.18;37.53
10366;BME280;5229;41.820;23.490;2022-07-29T07:40:24;90349.22;;;32.30;37.30
10366;BME280;5229;41.820;23.490;2022-07-29T07:42:51;90360.44;;;32.41;37.14
10366;BME280;5229;41.820;23.490;2022-07-29T07:45:17;90352.31;;;32.57;37.33
10366;BME280;5229;41.820;23.490;2022-07-29T07:47:44;90352.72;;;32.68;36.49
10366;BME280;5229;41.820;23.490;2022-07-29T07:50:12;90347.44;;;32.77;36.32
10366;BME280;5229;41.820;23.490;2022-07-29T07:52:50;90347.25;;;32.84;35.98
10366;BME280;5229;41.820;23.490;2022-07-29T07:55:17;90349.50;;;32.98;35.63
10366;BME280;5229;41.820;23.490;2022-07-29T07:57:46;90343.69;;;33.12;34.88
10366;BME280;5229;41.820;23.490;2022-07-29T08:00:14;90342.94;;;33.25;34.66
10366;BME280;5229;41.820;23.490;2022-07-29T08:02:42;90339.38;;;33.40;34.58
10366;BME280;5229;41.820;23.490;2022-07-29T08:05:10;90346.00;;;33.61;34.04
10366;BME280;5229;41.820;23.490;2022-07-29T08:07:41;90337.00;;;33.76;34.04
10366;BME280;5229;41.820;23.490;2022-07-29T08:10:08;90340.44;;;33.89;32.94
10366;BME280;5229;41.820;23.490;2022-07-29T08:12:35;90336.16;;;34.01;33.00
10366;BME280;5229;41.820;23.490;2022-07-29T08:15:04;90331.91;;;34.12;32.52
10366;BME280;5229;41.820;23.490;2022-07-29T08:17:33;90334.22;;;34.23;31.97
10366;BME280;5229;41.820;23.490;2022-07-29T08:19:59;90343.53;;;34.31;31.87
10366;BME280;5229;41.820;23.490;2022-07-29T08:22:26;90340.66;;;34.47;32.00
10366;BME280;5229;41.820;23.490;2022-07-29T08:24:53;90341.00;;;34.58;31.34
10366;BME280;5229;41.820;23.490;2022-07-29T08:27:21;90346.03;;;34.68;31.24
10366;BME280;5229;41.820;23.490;2022-07-29T08:29:48;90336.47;;;34.76;31.47
10366;BME280;5229;41.820;23.490;2022-07-29T08:32:16;90330.81;;;34.83;31.90
10366;BME280;5229;41.820;23.490;2022-07-29T08:34:43;90329.53;;;34.97;30.89
10366;BME280;5229;41.820;23.490;2022-07-29T08:37:11;90328.84;;;35.14;31.00
10366;BME280;5229;41.820;23.490;2022-07-29T08:39:38;90337.56;;;35.27;30.60
10366;BME280;5229;41.820;23.490;2022-07-29T08:42:06;90333.13;;;35.42;30.31
10366;BME280;5229;41.820;23.490;2022-07-29T08:44:35;90324.91;;;35.73;29.63
10366;BME280;5229;41.820;23.490;2022-07-29T08:47:02;90325.69;;;36.37;28.50
10366;BME280;5229;41.820;23.490;2022-07-29T08:49:33;90329.66;;;37.42;26.95
10366;BME280;5229;41.820;23.490;2022-07-29T08:52:00;90327.06;;;38.91;25.08
10366;BME280;5229;41.820;23.490;2022-07-29T08:54:27;90341.28;;;40.44;23.61
10366;BME280;5229;41.820;23.490;2022-07-29T08:56:55;90336.72;;;41.80;22.06
10366;BME280;5229;41.820;23.490;2022-07-29T08:59:25;90336.34;;;43.01;21.28
10366;BME280;5229;41.820;23.490;2022-07-29T09:01:54;90346.25;;;43.98;19.84
10366;BME280;5229;41.820;23.490;2022-07-29T09:04:21;90345.22;;;44.69;19.18
10366;BME280;5229;41.820;23.490;2022-07-29T09:06:53;90346.38;;;45.25;18.09
10366;BME280;5229;41.820;23.490;2022-07-29T09:09:21;90343.97;;;45.75;17.78
10366;BME280;5229;41.820;23.490;2022-07-29T09:11:48;90344.66;;;46.29;17.59
10366;BME280;5229;41.820;23.490;2022-07-29T09:14:15;90347.31;;;46.96;17.44
10366;BME280;5229;41.820;23.490;2022-07-29T09:16:51;90344.09;;;47.61;17.04
10366;BME280;5229;41.820;23.490;2022-07-29T09:19:23;90340.47;;;48.10;15.80
10366;BME280;5229;41.820;23.490;2022-07-29T09:21:52;90342.28;;;48.34;15.39
10366;BME280;5229;41.820;23.490;2022-07-29T09:24:40;90350.09;;;48.69;15.46
10366;BME280;5229;41.820;23.490;2022-07-29T09:27:18;90352.72;;;49.34;15.68
10366;BME280;5229;41.820;23.490;2022-07-29T09:29:46;90345.50;;;49.93;14.92
10366;BME280;5229;41.820;23.490;2022-07-29T09:32:13;90341.13;;;50.25;14.30
10366;BME280;5229;41.820;23.490;2022-07-29T09:34:40;90347.41;;;50.54;14.06
10366;BME280;5229;41.820;23.490;2022-07-29T09:37:08;90333.84;;;50.63;13.58
10366;BME280;5229;41.820;23.490;2022-07-29T09:39:37;90336.31;;;50.46;13.68
10366;BME280;5229;41.820;23.490;2022-07-29T09:42:10;90334.22;;;50.11;13.66
10366;BME280;5229;41.820;23.490;2022-07-29T09:44:41;90333.09;;;49.86;13.95
10366;BME280;5229;41.820;23.490;2022-07-29T09:47:09;90330.09;;;49.97;13.75
10366;BME280;5229;41.820;23.490;2022-07-29T09:49:49;90327.06;;;50.08;13.77
10366;BME280;5229;41.820;23.490;2022-07-29T09:52:18;90318.84;;;50.23;13.33
10366;BME280;5229;41.820;23.490;2022-07-29T09:54:45;90316.72;;;50.29;13.39
10366;BME280;5229;41.820;23.490;2022-07-29T09:57:22;90311.94;;;50.37;12.99
10366;BME280;5229;41.820;23.490;2022-07-29T09:59:56;90308.09;;;50.40;13.24
10366;BME280;5229;41.820;23.490;2022-07-29T10:02:27;90311.47;;;49.49;13.55
10366;BME280;5229;41.820;23.490;2022-07-29T10:04:55;90307.50;;;49.03;12.94
10366;BME280;5229;41.820;23.490;2022-07-29T10:07:23;90306.31;;;49.12;12.87
10366;BME280;5229;41.820;23.490;2022-07-29T10:09:52;90303.38;;;49.30;12.96
10366;BME280;5229;41.820;23.490;2022-07-29T10:12:20;90301.00;;;49.14;13.05
10366;BME280;5229;41.820;23.490;2022-07-29T10:14:47;90294.41;;;49.17;13.37
10366;BME280;5229;41.820;23.490;2022-07-29T10:17:15;90292.44;;;49.38;13.45
10366;BME280;5229;41.820;23.490;2022-07-29T10:19:43;90291.13;;;49.18;13.84
10366;BME280;5229;41.820;23.490;2022-07-29T10:22:10;90293.56;;;49.42;14.21
10366;BME280;5229;41.820;23.490;2022-07-29T10:24:39;90284.94;;;49.46;13.73
10366;BME280;5229;41.820;23.490;2022-07-29T10:27:07;90288.56;;;48.87;14.03
10366;BME280;5229;41.820;23.490;2022-07-29T10:29:34;90279.47;;;47.80;15.11
10366;BME280;5229;41.820;23.490;2022-07-29T10:32:19;90275.50;;;47.49;15.33
10366;BME280;5229;41.820;23.490;2022-07-29T10:34:59;90272.59;;;47.87;15.47
10366;BME280;5229;41.820;23.490;2022-07-29T10:37:34;90272.69;;;48.20;14.53
10366;BME280;5229;41.820;23.490;2022-07-29T10:40:12;90272.16;;;48.09;14.81
10366;BME280;5229;41.820;23.490;2022-07-29T10:43:07;90260.94;;;46.91;15.06
10366;BME280;5229;41.820;23.490;2022-07-29T10:45:41;90257.72;;;45.71;16.18
10366;BME280;5229;41.820;23.490;2022-07-29T10:48:08;90249.16;;;44.67;16.97
10366;BME280;5229;41.820;23.490;2022-07-29T10:50:56;90250.38;;;43.63;17.78
10366;BME280;5229;41.820;23.490;2022-07-29T10:53:24;90238.53;;;42.83;18.11
10366;BME280;5229;41.820;23.490;2022-07-29T10:55:59;90229.72;;;42.07;18.23
10366;BME280;5229;41.820;23.490;2022-07-29T10:58:25;90228.47;;;41.44;19.38
10366;BME280;5229;41.820;23.490;2022-07-29T11:00:53;90225.66;;;40.91;19.63
10366;BME280;5229;41.820;23.490;2022-07-29T11:03:42;90220.53;;;40.36;20.06
10366;BME280;5229;41.820;23.490;2022-07-29T11:06:09;90219.06;;;39.90;20.08
10366;BME280;5229;41.820;23.490;2022-07-29T11:08:36;90212.84;;;39.44;20.19
10366;BME280;5229;41.820;23.490;2022-07-29T11:11:31;90213.22;;;38.97;20.23
10366;BME280;5229;41.820;23.490;2022-07-29T11:13:58;90202.41;;;38.68;21.24
10366;BME280;5229;41.820;23.490;2022-07-29T11:16:25;90193.16;;;38.45;21.57
10366;BME280;5229;41.820;23.490;2022-07-29T11:19:20;90198.25;;;38.09;21.38
10366;BME280;5229;41.820;23.490;2022-07-29T11:21:48;90201.84;;;37.76;21.21
10366;BME280;5229;41.820;23.490;2022-07-29T11:24:17;90199.06;;;37.47;21.71
10366;BME280;5229;41.820;23.490;2022-07-29T11:27:06;90183.03;;;37.20;21.64
10366;BME280;5229;41.820;23.490;2022-07-29T11:29:35;90187.44;;;37.09;22.35
10366;BME280;5229;41.820;23.490;2022-07-29T11:32:09;90185.44;;;36.95;22.09
10366;BME280;5229;41.820;23.490;2022-07-29T11:34:37;90180.03;;;36.71;22.84
10366;BME280;5229;41.820;23.490;2022-07-29T11:37:16;90183.97;;;36.52;22.82
10366;BME280;5229;41.820;23.490;2022-07-29T11:39:45;90178.91;;;36.45;22.93
10366;BME280;5229;41.820;23.490;2022-07-29T11:42:39;90182.41;;;36.37;22.79
10366;BME280;5229;41.820;23.490;2022-07-29T11:45:08;90183.31;;;36.34;22.60
10366;BME280;5229;41.820;23.490;2022-07-29T11:47:36;90174.34;;;36.28;22.82
10366;BME280;5229;41.820;23.490;2022-07-29T11:50:05;90176.00;;;36.25;22.31
10366;BME280;5229;41.820;23.490;2022-07-29T11:52:33;90173.03;;;36.14;22.67
10366;BME280;5229;41.820;23.490;2022-07-29T11:55:04;90170.97;;;36.00;21.99
10366;BME280;5229;41.820;23.490;2022-07-29T11:57:31;90165.28;;;35.89;22.75
10366;BME280;5229;41.820;23.490;2022-07-29T12:00:00;90160.34;;;35.79;22.74
10366;BME280;5229;41.820;23.490;2022-07-29T12:02:38;90165.19;;;35.56;22.58
10366;BME280;5229;41.820;23.490;2022-07-29T12:05:06;90163.25;;;35.48;23.87
10366;BME280;5229;41.820;23.490;2022-07-29T12:07:33;90156.34;;;35.47;23.51
10366;BME280;5229;41.820;23.490;2022-07-29T12:10:02;90170.44;;;35.51;24.13
10366;BME280;5229;41.820;23.490;2022-07-29T12:12:29;90172.81;;;35.58;23.95
10366;BME280;5229;41.820;23.490;2022-07-29T12:14:56;90167.44;;;35.58;25.34
10366;BME280;5229;41.820;23.490;2022-07-29T12:17:28;90174.50;;;35.55;25.44
10366;BME280;5229;41.820;23.490;2022-07-29T12:19:57;90187.50;;;35.21;26.15
10366;BME280;5229;41.820;23.490;2022-07-29T12:22:25;90183.97;;;34.66;26.78
10366;BME280;5229;41.820;23.490;2022-07-29T12:24:53;90181.56;;;34.20;27.74
10366;BME280;5229;41.820;23.490;2022-07-29T12:27:20;90188.03;;;33.92;28.03
10366;BME280;5229;41.820;23.490;2022-07-29T12:29:55;90182.88;;;33.63;28.16
10366;BME280;5229;41.820;23.490;2022-07-29T12:32:23;90190.28;;;33.50;28.77
10366;BME280;5229;41.820;23.490;2022-07-29T12:34:51;90188.16;;;33.45;28.63
10366;BME280;5229;41.820;23.490;2022-07-29T12:37:18;90185.78;;;33.47;28.67
10366;BME280;5229;41.820;23.490;2022-07-29T12:39:45;90193.47;;;33.58;28.83
10366;BME280;5229;41.820;23.490;2022-07-29T12:42:12;90187.53;;;33.63;28.65
10366;BME280;5229;41.820;23.490;2022-07-29T12:44:49;90178.19;;;33.55;28.26
10366;BME280;5229;41.820;23.490;2022-07-29T12:47:17;90189.78;;;33.43;28.59
10366;BME280;5229;41.820;23.490;2022-07-29T12:49:44;90179.16;;;33.27;28.83
10366;BME280;5229;41.820;23.490;2022-07-29T12:52:30;90178.84;;;33.03;29.29
10366;BME280;5229;41.820;23.490;2022-07-29T12:54:58;90174.13;;;32.94;28.95
10366;BME280;5229;41.820;23.490;2022-07-29T12:57:25;90174.59;;;32.80;29.43
10366;BME280;5229;41.820;23.490;2022-07-29T13:00:00;90169.69;;;32.66;29.34
10366;BME280;5229;41.820;23.490;2022-07-29T13:02:28;90173.03;;;32.58;29.40
10366;BME280;5229;41.820;23.490;2022-07-29T13:04:55;90169.50;;;32.48;29.97
10366;BME280;5229;41.820;23.490;2022-07-29T13:07:24;90170.06;;;32.43;30.31
10366;BME280;5229;41.820;23.490;2022-07-29T13:09:53;90185.63;;;32.36;30.59
10366;BME280;5229;41.820;23.490;2022-07-29T13:12:20;90166.53;;;32.21;30.46